Time;durP1;ratioP1;P1;durP2;ratioP2;P2;SDS_P1;SDS_P2;PMS_P1;PMS_P2;Temp;Humidity;BMP_temperature;BMP_pressure;BME280_temperature;BME280_humidity;BME280_pressure;Samples;Min_cycle;Max_cycle;Signal;HPM_P1;HPM_P2
2022/03/25 00:00:02;;;;;;;;;;;20.50;32.60;;;;;;5059538;28;19964;-44
2022/03/25 00:02:29;;;;;;;;;;;20.50;32.60;;;;;;5095500;28;20007;-44
2022/03/25 00:04:56;;;;;;;;;;;20.50;32.60;;;;;;5066337;28;19925;-47
2022/03/25 00:07:27;;;;;;;;;;;20.50;32.60;;;;;;5061867;28;19921;-46
2022/03/25 00:09:54;;;;;;;;;;;20.50;32.60;;;;;;5055421;28;19942;-46
2022/03/25 00:12:22;;;;;;;;;;;20.50;32.60;;;;;;5084015;28;19979;-48
2022/03/25 00:14:49;;;;;;;;;;;20.50;32.60;;;;;;5065362;28;19925;-42
2022/03/25 00:17:16;;;;;;;;;;;20.50;32.60;;;;;;5094345;28;20166;-46
2022/03/25 00:19:43;;;;;;;;;;;20.50;32.60;;;;;;5081253;28;19924;-47
2022/03/25 00:22:09;;;;;;;;;;;20.50;32.60;;;;;;5067851;28;20051;-48
2022/03/25 00:24:36;;;;;;;;;;;20.50;32.60;;;;;;5066007;28;19928;-43
2022/03/25 00:27:04;;;;;;;;;;;20.50;32.70;;;;;;5067637;28;19931;-49
2022/03/25 00:29:32;;;;;;;;;;;20.50;32.60;;;;;;5065848;28;19920;-44
2022/03/25 00:31:58;;;;;;;;;;;20.50;32.60;;;;;;5068739;28;20289;-43
2022/03/25 00:34:25;;;;;;;;;;;20.50;32.70;;;;;;5049970;28;19956;-46
2022/03/25 00:36:52;;;;;;;;;;;20.50;32.70;;;;;;5069367;28;19928;-46
2022/03/25 00:39:20;;;;;;;;;;;20.50;32.70;;;;;;5074054;28;19938;-44
2022/03/25 00:41:47;;;;;;;;;;;20.50;32.70;;;;;;5096249;28;19932;-45
2022/03/25 00:44:18;;;;;;;;;;;20.50;32.70;;;;;;5071525;28;19921;-47
2022/03/25 00:46:46;;;;;;;;;;;20.50;32.70;;;;;;5059315;28;19920;-43
2022/03/25 00:49:13;;;;;;;;;;;20.50;32.70;;;;;;5065056;28;19928;-46
2022/03/25 00:51:39;;;;;;;;;;;20.50;32.70;;;;;;5061666;28;19924;-46
2022/03/25 00:54:07;;;;;;;;;;;20.50;32.70;;;;;;5089746;28;19925;-44
2022/03/25 00:56:34;;;;;;;;;;;20.50;32.70;;;;;;5072137;28;19920;-43
2022/03/25 00:59:01;;;;;;;;;;;20.40;32.60;;;;;;5072621;28;19924;-45
2022/03/25 01:01:27;;;;;;;;;;;20.40;32.60;;;;;;5064572;28;20255;-42
2022/03/25 01:03:56;;;;;;;;;;;20.50;32.70;;;;;;5072972;28;19928;-46
2022/03/25 01:06:24;;;;;;;;;;;20.50;32.70;;;;;;5068117;28;20007;-46
2022/03/25 01:08:51;;;;;;;;;;;20.40;32.60;;;;;;5095352;28;20155;-43
2022/03/25 01:11:19;;;;;;;;;;;20.50;32.70;;;;;;5058039;28;19928;-42
2022/03/25 01:13:46;;;;;;;;;;;20.50;32.80;;;;;;5051791;28;19928;-44
2022/03/25 01:16:12;;;;;;;;;;;20.40;32.70;;;;;;5094711;28;19936;-47
2022/03/25 01:18:39;;;;;;;;;;;20.40;32.70;;;;;;5064366;28;20398;-42
2022/03/25 01:21:07;;;;;;;;;;;20.50;32.70;;;;;;5096641;28;20389;-42
2022/03/25 01:23:35;;;;;;;;;;;20.40;32.70;;;;;;5071044;28;20291;-44
2022/03/25 01:26:03;;;;;;;;;;;20.50;32.80;;;;;;5069835;28;19963;-45
2022/03/25 01:28:34;;;;;;;;;;;20.50;32.80;;;;;;5068704;28;19928;-45
2022/03/25 01:31:01;;;;;;;;;;;20.40;32.70;;;;;;5072615;28;19921;-45
2022/03/25 01:33:28;;;;;;;;;;;20.40;32.70;;;;;;5068605;28;19925;-43
2022/03/25 01:35:55;;;;;;;;;;;20.40;32.70;;;;;;5068432;28;19921;-44
2022/03/25 01:38:25;;;;;;;;;;;20.40;32.70;;;;;;5048259;28;20015;-44
2022/03/25 01:40:56;;;;;;;;;;;20.40;32.70;;;;;;5067903;28;20310;-47
2022/03/25 01:43:23;;;;;;;;;;;20.40;32.70;;;;;;5061684;28;20003;-43
2022/03/25 01:45:50;;;;;;;;;;;20.50;32.80;;;;;;5070609;28;19929;-48
2022/03/25 01:48:17;;;;;;;;;;;20.40;32.70;;;;;;5070197;28;19966;-48
2022/03/25 01:50:44;;;;;;;;;;;20.40;32.70;;;;;;5071751;28;19920;-46
2022/03/25 01:53:11;;;;;;;;;;;20.40;32.80;;;;;;5061450;28;19959;-49
2022/03/25 01:55:40;;;;;;;;;;;20.40;32.70;;;;;;5098961;28;19928;-45
2022/03/25 01:58:07;;;;;;;;;;;20.40;32.70;;;;;;5071142;28;19929;-46
2022/03/25 02:00:34;;;;;;;;;;;20.40;32.80;;;;;;5095178;28;19921;-45
2022/03/25 02:03:01;;;;;;;;;;;20.40;32.70;;;;;;5064648;28;19920;-46
2022/03/25 02:05:28;;;;;;;;;;;20.40;32.80;;;;;;5069743;28;20362;-44
2022/03/25 02:07:54;;;;;;;;;;;20.40;32.70;;;;;;5069837;28;19927;-47
2022/03/25 02:10:22;;;;;;;;;;;20.40;32.80;;;;;;5068128;28;19925;-43
2022/03/25 02:12:50;;;;;;;;;;;20.50;32.80;;;;;;5085722;28;19974;-44
2022/03/25 02:15:17;;;;;;;;;;;20.40;32.80;;;;;;5069633;28;19926;-45
2022/03/25 02:17:44;;;;;;;;;;;20.40;32.80;;;;;;5057303;28;19921;-47
2022/03/25 02:20:12;;;;;;;;;;;20.40;32.80;;;;;;5067701;28;19921;-46
2022/03/25 02:22:41;;;;;;;;;;;20.40;32.80;;;;;;5067741;28;20429;-43
2022/03/25 02:25:09;;;;;;;;;;;20.40;32.80;;;;;;5067132;28;19932;-45
2022/03/25 02:27:36;;;;;;;;;;;20.40;32.80;;;;;;5057337;28;19992;-43
2022/03/25 02:30:03;;;;;;;;;;;20.40;32.90;;;;;;5101823;28;19920;-45
2022/03/25 02:32:29;;;;;;;;;;;20.40;32.80;;;;;;5071324;28;19920;-42
2022/03/25 02:34:57;;;;;;;;;;;20.40;32.80;;;;;;5069449;28;20031;-43
2022/03/25 02:37:25;;;;;;;;;;;20.40;32.80;;;;;;5068159;28;19966;-42
2022/03/25 02:40:00;;;;;;;;;;;20.40;32.80;;;;;;5067810;28;19933;-44
2022/03/25 02:42:29;;;;;;;;;;;20.40;32.80;;;;;;5068897;28;19920;-46
2022/03/25 02:44:56;;;;;;;;;;;20.40;32.80;;;;;;5069861;28;19924;-45
2022/03/25 02:47:23;;;;;;;;;;;20.40;32.80;;;;;;5068237;28;19925;-42
2022/03/25 02:49:51;;;;;;;;;;;20.40;32.80;;;;;;5069295;28;19935;-43
2022/03/25 02:52:20;;;;;;;;;;;20.40;32.80;;;;;;5084413;28;23003;-44
2022/03/25 02:54:47;;;;;;;;;;;20.40;32.80;;;;;;5088128;28;19920;-46
2022/03/25 02:57:15;;;;;;;;;;;20.40;32.80;;;;;;5094128;28;20010;-44
2022/03/25 02:59:42;;;;;;;;;;;20.40;32.80;;;;;;5068201;28;19924;-44
2022/03/25 03:02:09;;;;;;;;;;;20.40;32.80;;;;;;5067856;28;19974;-46
2022/03/25 03:04:37;;;;;;;;;;;20.40;32.80;;;;;;5064637;28;20370;-47
2022/03/25 03:07:04;;;;;;;;;;;20.40;32.80;;;;;;5067400;28;19933;-43
2022/03/25 03:09:31;;;;;;;;;;;20.40;32.90;;;;;;5067797;28;20324;-49
2022/03/25 03:11:58;;;;;;;;;;;20.40;32.80;;;;;;5067897;28;19996;-47
2022/03/25 03:14:26;;;;;;;;;;;20.40;32.80;;;;;;5071175;28;19924;-44
2022/03/25 03:16:53;;;;;;;;;;;20.40;32.80;;;;;;5065379;28;20412;-47
2022/03/25 03:19:19;;;;;;;;;;;20.40;32.90;;;;;;5098530;28;20522;-46
2022/03/25 03:21:46;;;;;;;;;;;20.40;32.90;;;;;;5069024;28;19925;-47
2022/03/25 03:24:13;;;;;;;;;;;20.40;32.90;;;;;;5070486;28;20273;-47
2022/03/25 03:26:40;;;;;;;;;;;20.40;32.90;;;;;;5062136;28;19970;-49
2022/03/25 03:29:06;;;;;;;;;;;20.40;32.90;;;;;;5068825;28;19929;-44
2022/03/25 03:31:35;;;;;;;;;;;20.40;32.90;;;;;;5065190;28;19921;-44
2022/03/25 03:34:01;;;;;;;;;;;20.40;32.90;;;;;;5065277;28;20341;-48
2022/03/25 03:36:28;;;;;;;;;;;20.40;32.90;;;;;;5064121;28;20254;-45
2022/03/25 03:38:55;;;;;;;;;;;20.40;32.80;;;;;;5067512;28;19943;-47
2022/03/25 03:41:22;;;;;;;;;;;20.40;32.90;;;;;;5068117;28;19993;-45
2022/03/25 03:43:49;;;;;;;;;;;20.40;32.90;;;;;;5077305;28;19955;-45
2022/03/25 03:46:16;;;;;;;;;;;20.40;32.90;;;;;;5068207;28;19955;-44
2022/03/25 03:48:44;;;;;;;;;;;20.40;32.90;;;;;;5068824;28;19931;-43
2022/03/25 03:51:11;;;;;;;;;;;20.40;32.90;;;;;;5065077;28;19925;-45
2022/03/25 03:53:38;;;;;;;;;;;20.40;32.90;;;;;;5051967;28;20552;-44
2022/03/25 03:56:06;;;;;;;;;;;20.40;32.90;;;;;;5066793;28;19963;-42
2022/03/25 03:58:33;;;;;;;;;;;20.40;32.90;;;;;;5070640;28;20000;-48
2022/03/25 04:00:59;;;;;;;;;;;20.40;33.50;;;;;;5068370;28;19927;-45
2022/03/25 04:03:30;;;;;;;;;;;20.40;32.90;;;;;;5059150;28;20334;-43
2022/03/25 04:06:00;;;;;;;;;;;20.40;32.80;;;;;;5068360;28;19924;-43
2022/03/25 04:08:27;;;;;;;;;;;20.40;32.90;;;;;;5069413;28;19921;-44
2022/03/25 04:10:53;;;;;;;;;;;20.40;32.90;;;;;;5072315;28;20369;-42
2022/03/25 04:13:20;;;;;;;;;;;20.40;32.90;;;;;;5072078;28;19920;-47
2022/03/25 04:15:47;;;;;;;;;;;20.50;33.00;;;;;;5066269;28;20018;-42
2022/03/25 04:18:14;;;;;;;;;;;20.40;33.00;;;;;;5066821;28;20499;-45
2022/03/25 04:20:40;;;;;;;;;;;20.40;32.90;;;;;;5071987;28;20396;-42
2022/03/25 04:23:09;;;;;;;;;;;20.40;32.90;;;;;;5074388;28;19943;-45
2022/03/25 04:25:36;;;;;;;;;;;20.40;32.90;;;;;;5072530;28;19924;-44
2022/03/25 04:28:03;;;;;;;;;;;20.40;32.90;;;;;;5074246;28;19942;-46
2022/03/25 04:30:30;;;;;;;;;;;20.40;32.90;;;;;;5067635;28;19962;-43
2022/03/25 04:32:57;;;;;;;;;;;20.40;32.90;;;;;;5084772;28;19971;-45
2022/03/25 04:35:23;;;;;;;;;;;20.40;32.90;;;;;;5067009;28;20262;-43
2022/03/25 04:37:50;;;;;;;;;;;20.40;32.90;;;;;;5067649;28;19928;-43
2022/03/25 04:40:19;;;;;;;;;;;20.40;32.90;;;;;;5070849;28;19946;-44
2022/03/25 04:42:45;;;;;;;;;;;20.40;32.90;;;;;;5066945;28;19928;-42
2022/03/25 04:45:12;;;;;;;;;;;20.40;32.90;;;;;;5073666;28;19920;-44
2022/03/25 04:47:39;;;;;;;;;;;20.40;32.90;;;;;;5065137;28;19964;-45
2022/03/25 04:50:06;;;;;;;;;;;20.40;32.90;;;;;;5071744;28;19925;-44
2022/03/25 04:52:33;;;;;;;;;;;20.40;32.90;;;;;;5060506;28;20015;-46
2022/03/25 04:54:59;;;;;;;;;;;20.40;32.90;;;;;;5065481;28;19924;-44
2022/03/25 04:57:28;;;;;;;;;;;20.40;32.90;;;;;;5071050;28;19924;-44
2022/03/25 04:59:55;;;;;;;;;;;20.40;32.90;;;;;;5072108;28;19957;-45
2022/03/25 05:02:21;;;;;;;;;;;20.40;32.90;;;;;;5070605;28;19924;-47
2022/03/25 05:04:48;;;;;;;;;;;20.40;32.90;;;;;;5070547;28;19928;-49
2022/03/25 05:07:15;;;;;;;;;;;20.40;32.90;;;;;;5069656;28;19955;-47
2022/03/25 05:09:42;;;;;;;;;;;20.40;32.90;;;;;;5105923;28;19977;-44
2022/03/25 05:12:11;;;;;;;;;;;20.40;32.90;;;;;;5099101;28;19925;-45
2022/03/25 05:14:39;;;;;;;;;;;20.40;33.00;;;;;;5084882;28;19978;-45
2022/03/25 05:17:06;;;;;;;;;;;20.40;33.00;;;;;;5065686;28;20358;-47
2022/03/25 05:19:33;;;;;;;;;;;20.40;32.90;;;;;;5073317;28;19928;-43
2022/03/25 05:21:59;;;;;;;;;;;20.40;33.00;;;;;;5070286;28;19920;-43
2022/03/25 05:24:26;;;;;;;;;;;20.40;32.90;;;;;;5066778;28;19925;-46
2022/03/25 05:26:53;;;;;;;;;;;20.40;32.90;;;;;;5086878;28;19997;-47
2022/03/25 05:29:20;;;;;;;;;;;20.40;32.90;;;;;;5101520;28;19920;-46
2022/03/25 05:31:49;;;;;;;;;;;20.40;32.90;;;;;;5103095;28;19921;-42
2022/03/25 05:34:15;;;;;;;;;;;20.40;32.90;;;;;;5072518;28;19955;-46
2022/03/25 05:36:42;;;;;;;;;;;20.40;33.00;;;;;;5066660;28;20390;-44
2022/03/25 05:39:09;;;;;;;;;;;20.40;32.90;;;;;;5070797;28;20341;-46
2022/03/25 05:41:36;;;;;;;;;;;20.40;33.00;;;;;;5072556;28;19935;-45
2022/03/25 05:44:02;;;;;;;;;;;20.40;33.00;;;;;;5052393;28;20083;-45
2022/03/25 05:46:29;;;;;;;;;;;20.40;33.00;;;;;;5071872;28;20015;-43
2022/03/25 05:48:57;;;;;;;;;;;20.40;33.00;;;;;;5072925;28;19924;-46
2022/03/25 05:51:24;;;;;;;;;;;20.40;33.00;;;;;;5073224;28;20384;-45
2022/03/25 05:53:51;;;;;;;;;;;20.40;33.00;;;;;;5066979;28;19920;-43
2022/03/25 05:56:18;;;;;;;;;;;20.40;33.00;;;;;;5068160;28;20179;-44
2022/03/25 05:58:44;;;;;;;;;;;20.40;33.00;;;;;;5095774;28;20264;-46
2022/03/25 06:01:11;;;;;;;;;;;20.40;33.00;;;;;;5093420;28;19991;-45
2022/03/25 06:03:39;;;;;;;;;;;20.40;33.00;;;;;;5070173;28;19921;-43
2022/03/25 06:06:09;;;;;;;;;;;20.40;33.00;;;;;;5070143;28;19926;-43
2022/03/25 06:08:37;;;;;;;;;;;20.40;33.00;;;;;;5069897;28;20287;-44
2022/03/25 06:11:03;;;;;;;;;;;20.40;33.00;;;;;;5072494;28;20456;-44
2022/03/25 06:13:31;;;;;;;;;;;20.40;33.00;;;;;;5069992;28;19924;-45
2022/03/25 06:16:00;;;;;;;;;;;20.40;33.00;;;;;;5069599;28;19924;-44
2022/03/25 06:18:26;;;;;;;;;;;20.50;33.10;;;;;;5067804;28;20365;-46
2022/03/25 06:20:53;;;;;;;;;;;20.40;33.00;;;;;;5069480;28;19928;-48
2022/03/25 06:23:21;;;;;;;;;;;20.40;33.10;;;;;;5070314;28;20298;-45
2022/03/25 06:25:48;;;;;;;;;;;20.40;33.00;;;;;;5105207;28;19951;-43
2022/03/25 06:28:15;;;;;;;;;;;20.40;33.10;;;;;;5069466;28;19974;-44
2022/03/25 06:30:43;;;;;;;;;;;20.40;33.00;;;;;;5069758;28;19956;-47
2022/03/25 06:33:10;;;;;;;;;;;20.40;33.10;;;;;;5070423;28;19955;-48
2022/03/25 06:35:39;;;;;;;;;;;20.40;33.10;;;;;;5070622;28;19924;-46
2022/03/25 06:38:09;;;;;;;;;;;20.40;33.10;;;;;;5061834;28;19924;-45
2022/03/25 06:40:37;;;;;;;;;;;20.40;33.10;;;;;;5071159;28;20430;-44
2022/03/25 06:43:05;;;;;;;;;;;20.40;33.10;;;;;;5069073;28;20423;-45
2022/03/25 06:45:32;;;;;;;;;;;20.40;33.10;;;;;;5068390;28;19928;-44
2022/03/25 06:47:59;;;;;;;;;;;20.40;33.10;;;;;;5065570;28;19921;-45
2022/03/25 06:50:26;;;;;;;;;;;20.40;33.10;;;;;;5070558;28;19925;-44
2022/03/25 06:52:53;;;;;;;;;;;20.40;33.10;;;;;;5069157;28;19955;-46
2022/03/25 06:55:21;;;;;;;;;;;20.40;33.10;;;;;;5067076;28;19927;-47
2022/03/25 06:57:50;;;;;;;;;;;20.40;33.10;;;;;;5054743;28;19931;-47
2022/03/25 07:00:17;;;;;;;;;;;20.40;33.10;;;;;;5070497;28;20011;-44
2022/03/25 07:02:44;;;;;;;;;;;20.40;33.10;;;;;;5097942;28;20023;-48
2022/03/25 07:05:11;;;;;;;;;;;20.50;33.20;;;;;;5096235;28;20301;-45
2022/03/25 07:07:40;;;;;;;;;;;20.40;33.10;;;;;;5069864;28;20242;-43
2022/03/25 07:10:16;;;;;;;;;;;20.40;33.20;;;;;;5069152;28;19924;-46
2022/03/25 07:12:44;;;;;;;;;;;20.40;33.10;;;;;;5068461;28;19924;-43
2022/03/25 07:15:14;;;;;;;;;;;20.40;33.10;;;;;;5063475;28;19925;-47
2022/03/25 07:17:41;;;;;;;;;;;20.40;33.20;;;;;;5064832;28;19927;-43
2022/03/25 07:20:09;;;;;;;;;;;20.40;33.10;;;;;;5062831;28;19948;-45
2022/03/25 07:22:36;;;;;;;;;;;20.40;33.10;;;;;;5065182;28;20014;-44
2022/03/25 07:25:04;;;;;;;;;;;20.40;33.20;;;;;;5078910;28;19970;-50
2022/03/25 07:27:31;;;;;;;;;;;20.40;33.10;;;;;;5070144;28;19963;-43
2022/03/25 07:29:57;;;;;;;;;;;20.40;33.20;;;;;;5069025;28;19925;-46
2022/03/25 07:32:26;;;;;;;;;;;20.40;33.20;;;;;;5064779;28;20018;-44
2022/03/25 07:34:52;;;;;;;;;;;20.40;33.20;;;;;;5067631;28;20266;-43
2022/03/25 07:37:19;;;;;;;;;;;20.40;33.20;;;;;;5067372;28;19956;-46
2022/03/25 07:39:46;;;;;;;;;;;20.40;33.20;;;;;;5067434;28;20271;-44
2022/03/25 07:42:13;;;;;;;;;;;20.40;33.20;;;;;;5070202;28;19920;-43
2022/03/25 07:44:40;;;;;;;;;;;20.40;33.30;;;;;;5068768;28;19929;-47
2022/03/25 07:47:08;;;;;;;;;;;20.40;33.30;;;;;;5071316;28;20024;-48
2022/03/25 07:49:38;;;;;;;;;;;20.40;33.30;;;;;;5070212;28;19924;-43
2022/03/25 07:52:05;;;;;;;;;;;20.40;33.30;;;;;;5094792;28;19962;-48
2022/03/25 07:54:32;;;;;;;;;;;20.40;33.30;;;;;;5061415;28;19937;-47
2022/03/25 07:57:01;;;;;;;;;;;20.40;33.30;;;;;;5089856;28;19929;-44
2022/03/25 07:59:28;;;;;;;;;;;20.40;33.30;;;;;;5067100;28;19970;-44
2022/03/25 08:01:55;;;;;;;;;;;20.40;33.40;;;;;;5062291;28;20015;-45
2022/03/25 08:04:23;;;;;;;;;;;20.40;33.40;;;;;;5070147;28;19925;-44
2022/03/25 08:06:52;;;;;;;;;;;20.40;33.30;;;;;;5065414;28;19990;-44
2022/03/25 08:09:18;;;;;;;;;;;20.40;33.40;;;;;;5062010;28;19956;-45
2022/03/25 08:11:46;;;;;;;;;;;20.40;33.40;;;;;;5064627;28;19920;-44
2022/03/25 08:14:13;;;;;;;;;;;20.40;33.40;;;;;;5061125;28;19924;-46
2022/03/25 08:16:40;;;;;;;;;;;20.40;33.40;;;;;;5067636;28;19921;-46
2022/03/25 08:19:07;;;;;;;;;;;20.40;33.40;;;;;;5094209;28;19920;-45
2022/03/25 08:21:33;;;;;;;;;;;20.40;33.40;;;;;;5062368;28;20019;-43
2022/03/25 08:29:30;;;;;;;;;;;20.40;33.40;;;;;;5067274;28;20397;-45
2022/03/25 08:31:57;;;;;;;;;;;20.40;33.40;;;;;;5066756;28;20346;-44
2022/03/25 08:34:23;;;;;;;;;;;20.40;33.50;;;;;;5063282;28;20412;-47
2022/03/25 08:36:50;;;;;;;;;;;20.40;33.50;;;;;;5066489;28;20019;-43
2022/03/25 08:39:19;;;;;;;;;;;20.50;33.60;;;;;;5054342;28;19978;-44
2022/03/25 08:41:46;;;;;;;;;;;20.40;33.60;;;;;;5063379;28;19967;-43
2022/03/25 08:44:12;;;;;;;;;;;20.50;33.70;;;;;;5063670;28;19925;-44
2022/03/25 08:46:39;;;;;;;;;;;20.50;33.70;;;;;;5064164;28;19967;-44
2022/03/25 08:49:06;;;;;;;;;;;20.50;33.70;;;;;;5061640;28;20426;-43
2022/03/25 08:51:33;;;;;;;;;;;20.50;33.80;;;;;;5098462;28;19935;-45
2022/03/25 08:54:00;;;;;;;;;;;20.50;33.80;;;;;;5064478;28;20017;-45
2022/03/25 08:56:28;;;;;;;;;;;20.50;33.80;;;;;;5065106;28;20151;-42
2022/03/25 08:58:58;;;;;;;;;;;20.50;33.80;;;;;;5068082;28;20150;-43
2022/03/25 09:01:24;;;;;;;;;;;20.50;33.90;;;;;;5069262;28;20373;-44
2022/03/25 09:03:52;;;;;;;;;;;20.50;33.90;;;;;;5068785;28;20165;-45
2022/03/25 09:06:19;;;;;;;;;;;20.50;33.90;;;;;;5069870;28;19920;-45
2022/03/25 09:08:46;;;;;;;;;;;20.50;33.90;;;;;;5098650;28;19971;-43
2022/03/25 09:11:13;;;;;;;;;;;20.50;33.90;;;;;;5099685;28;19921;-45
2022/03/25 09:13:41;;;;;;;;;;;20.50;33.90;;;;;;5069361;28;20025;-43
2022/03/25 09:16:09;;;;;;;;;;;20.50;33.90;;;;;;5069055;28;20015;-45
2022/03/25 09:18:35;;;;;;;;;;;20.50;33.90;;;;;;5065982;28;20433;-43
2022/03/25 09:21:02;;;;;;;;;;;20.50;33.90;;;;;;5069221;28;19920;-44
2022/03/25 09:23:29;;;;;;;;;;;20.50;33.80;;;;;;5067652;28;19931;-44
2022/03/25 09:25:56;;;;;;;;;;;20.50;33.80;;;;;;5066953;28;19974;-44
2022/03/25 09:28:23;;;;;;;;;;;20.50;33.80;;;;;;5098517;28;19924;-43
2022/03/25 09:30:55;;;;;;;;;;;20.50;33.80;;;;;;5067214;28;19987;-44
2022/03/25 09:33:22;;;;;;;;;;;20.50;33.80;;;;;;5066623;28;19935;-43
2022/03/25 09:35:49;;;;;;;;;;;20.50;33.80;;;;;;5066899;28;19924;-42
2022/03/25 09:38:15;;;;;;;;;;;20.50;33.80;;;;;;5067183;28;19970;-44
2022/03/25 09:40:42;;;;;;;;;;;20.50;33.80;;;;;;5063708;28;20425;-43
2022/03/25 09:43:11;;;;;;;;;;;20.50;33.80;;;;;;5066252;28;19981;-46
2022/03/25 09:45:39;;;;;;;;;;;20.50;33.80;;;;;;5070724;28;19929;-46
2022/03/25 09:48:07;;;;;;;;;;;20.50;33.80;;;;;;5052760;28;19925;-45
2022/03/25 09:50:37;;;;;;;;;;;20.50;33.80;;;;;;5067496;28;19950;-44
2022/03/25 09:53:03;;;;;;;;;;;20.50;33.80;;;;;;5062166;28;20535;-45
2022/03/25 09:55:31;;;;;;;;;;;20.50;33.80;;;;;;5062000;28;19952;-43
2022/03/25 09:57:58;;;;;;;;;;;20.50;33.70;;;;;;5068459;28;19954;-45
2022/03/25 10:00:24;;;;;;;;;;;20.50;33.80;;;;;;5063600;28;19936;-51
2022/03/25 10:02:51;;;;;;;;;;;20.50;33.90;;;;;;5058618;28;19940;-54
2022/03/25 10:05:19;;;;;;;;;;;20.50;33.80;;;;;;5062230;28;19921;-50
2022/03/25 10:07:47;;;;;;;;;;;20.50;33.90;;;;;;5068298;28;19935;-47
2022/03/25 10:10:14;;;;;;;;;;;20.50;33.80;;;;;;5069140;28;19920;-44
2022/03/25 10:12:42;;;;;;;;;;;20.50;33.80;;;;;;5072291;28;19986;-47
2022/03/25 10:15:15;;;;;;;;;;;20.50;33.60;;;;;;5051783;28;20013;-52
2022/03/25 10:17:46;;;;;;;;;;;20.40;33.50;;;;;;5056053;28;20342;-44
2022/03/25 10:20:13;;;;;;;;;;;20.40;33.40;;;;;;5088549;28;19920;-50
2022/03/25 10:22:43;;;;;;;;;;;20.40;33.50;;;;;;5060286;28;19920;-45
2022/03/25 10:25:10;;;;;;;;;;;20.40;33.50;;;;;;5056405;28;19928;-53
2022/03/25 10:27:37;;;;;;;;;;;20.40;33.50;;;;;;5057937;28;19965;-44
2022/03/25 10:30:05;;;;;;;;;;;20.30;33.50;;;;;;5060786;28;19942;-49
2022/03/25 10:32:34;;;;;;;;;;;20.30;33.50;;;;;;5059676;28;19931;-45
2022/03/25 10:35:02;;;;;;;;;;;20.30;33.40;;;;;;5057963;28;19950;-53
2022/03/25 10:37:29;;;;;;;;;;;20.30;33.40;;;;;;5058427;28;20277;-49
2022/03/25 10:39:58;;;;;;;;;;;20.30;33.30;;;;;;5053912;28;20163;-48
2022/03/25 10:42:24;;;;;;;;;;;20.30;33.30;;;;;;5059023;28;19920;-46
2022/03/25 10:44:51;;;;;;;;;;;20.30;33.20;;;;;;5059461;28;19982;-56
2022/03/25 10:47:23;;;;;;;;;;;20.30;33.70;;;;;;5058164;28;19925;-53
2022/03/25 10:49:50;;;;;;;;;;;20.30;33.00;;;;;;5057391;28;19932;-47
2022/03/25 10:52:23;;;;;;;;;;;20.20;32.80;;;;;;5058504;28;20872;-53
2022/03/25 10:54:50;;;;;;;;;;;20.20;32.60;;;;;;5057069;28;20019;-53
2022/03/25 10:57:19;;;;;;;;;;;20.20;32.40;;;;;;5060083;28;19920;-52
2022/03/25 11:00:01;;;;;;;;;;;20.20;32.10;;;;;;5061035;28;19959;-51
2022/03/25 11:02:28;;;;;;;;;;;20.20;31.60;;;;;;5055833;28;20273;-57
2022/03/25 11:04:55;;;;;;;;;;;20.20;31.40;;;;;;5058952;28;19920;-50
2022/03/25 11:07:23;;;;;;;;;;;20.10;31.20;;;;;;5061469;28;19950;-52
2022/03/25 11:09:50;;;;;;;;;;;20.10;31.20;;;;;;5058725;28;19925;-51
2022/03/25 11:12:17;;;;;;;;;;;20.10;31.00;;;;;;5060713;28;19924;-52
2022/03/25 11:14:45;;;;;;;;;;;20.10;30.90;;;;;;5057987;28;20010;-54
2022/03/25 11:17:12;;;;;;;;;;;20.10;30.90;;;;;;5054655;28;19928;-55
2022/03/25 11:19:39;;;;;;;;;;;20.10;30.90;;;;;;5056324;28;19920;-58
2022/03/25 11:22:05;;;;;;;;;;;20.10;30.90;;;;;;5059872;28;19920;-47
2022/03/25 11:24:32;;;;;;;;;;;20.10;31.00;;;;;;5059529;28;19932;-54
2022/03/25 11:27:00;;;;;;;;;;;20.10;30.60;;;;;;5057642;28;19920;-46
2022/03/25 11:29:27;;;;;;;;;;;20.10;30.50;;;;;;5090796;28;19986;-50
2022/03/25 11:32:11;;;;;;;;;;;20.00;30.50;;;;;;5057584;28;20026;-47
2022/03/25 11:34:47;;;;;;;;;;;20.00;30.60;;;;;;5058840;28;19924;-45
2022/03/25 11:37:21;;;;;;;;;;;20.00;30.80;;;;;;5060444;28;20014;-56
2022/03/25 11:39:48;;;;;;;;;;;20.00;30.90;;;;;;5058190;28;20344;-50
2022/03/25 11:42:30;;;;;;;;;;;20.00;31.00;;;;;;5059760;28;19927;-52
2022/03/25 11:45:11;;;;;;;;;;;20.00;31.20;;;;;;5057090;28;19920;-53
2022/03/25 11:47:40;;;;;;;;;;;20.00;31.30;;;;;;5055616;28;20381;-51
2022/03/25 11:50:26;;;;;;;;;;;20.00;31.40;;;;;;5059784;28;19925;-45
2022/03/25 11:52:52;;;;;;;;;;;20.00;31.50;;;;;;5070940;28;19920;-51
2022/03/25 11:55:19;;;;;;;;;;;20.10;31.60;;;;;;5088417;28;19921;-49
2022/03/25 11:57:46;;;;;;;;;;;20.10;31.70;;;;;;5085074;28;19944;-51
2022/03/25 12:00:22;;;;;;;;;;;20.10;31.70;;;;;;5059454;28;19924;-56
2022/03/25 12:03:00;;;;;;;;;;;20.10;31.80;;;;;;5059112;28;20342;-51
2022/03/25 12:05:36;;;;;;;;;;;20.10;31.90;;;;;;5059304;28;20322;-45
2022/03/25 12:08:22;;;;;;;;;;;20.10;31.80;;;;;;5060025;28;19920;-44
2022/03/25 12:10:49;;;;;;;;;;;20.10;31.90;;;;;;5060480;28;19928;-51
2022/03/25 12:13:16;;;;;;;;;;;20.10;32.50;;;;;;5058168;28;19925;-48
2022/03/25 12:15:43;;;;;;;;;;;20.10;31.90;;;;;;5059560;28;20335;-49
2022/03/25 12:18:28;;;;;;;;;;;20.10;31.90;;;;;;5080888;28;20321;-46
2022/03/25 12:20:56;;;;;;;;;;;20.10;32.00;;;;;;5053719;28;19931;-46
2022/03/25 12:23:23;;;;;;;;;;;20.10;32.10;;;;;;5060051;28;20366;-48
2022/03/25 12:25:49;;;;;;;;;;;20.20;32.10;;;;;;5060126;28;20096;-49
2022/03/25 12:28:23;;;;;;;;;;;20.20;32.20;;;;;;5060050;28;19946;-53
2022/03/25 12:30:50;;;;;;;;;;;20.20;32.30;;;;;;5060184;28;19943;-49
2022/03/25 12:33:17;;;;;;;;;;;20.20;32.30;;;;;;5060091;28;19921;-50
2022/03/25 12:35:46;;;;;;;;;;;20.20;32.30;;;;;;5060450;28;19928;-55
2022/03/25 12:38:20;;;;;;;;;;;20.20;32.30;;;;;;5063446;28;20273;-44
2022/03/25 12:40:47;;;;;;;;;;;20.20;32.40;;;;;;5060550;28;19992;-58
2022/03/25 12:43:13;;;;;;;;;;;20.20;32.40;;;;;;5062230;28;19928;-48
2022/03/25 12:45:41;;;;;;;;;;;20.20;32.40;;;;;;5061425;28;19927;-56
2022/03/25 12:48:09;;;;;;;;;;;20.20;32.40;;;;;;5060886;28;19920;-47
2022/03/25 12:50:36;;;;;;;;;;;20.20;32.40;;;;;;5058203;28;20377;-46
2022/03/25 12:53:03;;;;;;;;;;;20.20;32.50;;;;;;5061204;28;20086;-47
2022/03/25 12:55:32;;;;;;;;;;;20.20;32.50;;;;;;5062196;28;19920;-52
2022/03/25 12:58:02;;;;;;;;;;;20.20;32.50;;;;;;5063498;28;19928;-49
2022/03/25 13:00:32;;;;;;;;;;;20.20;32.30;;;;;;5062483;28;19997;-45
2022/03/25 13:02:58;;;;;;;;;;;20.20;32.40;;;;;;5061754;28;20219;-47
2022/03/25 13:05:25;;;;;;;;;;;20.20;32.40;;;;;;5062984;28;20293;-44
2022/03/25 13:07:54;;;;;;;;;;;20.20;32.50;;;;;;5063104;28;19928;-45
2022/03/25 13:10:21;;;;;;;;;;;20.20;32.40;;;;;;5062354;28;19921;-54
2022/03/25 13:12:51;;;;;;;;;;;20.30;32.50;;;;;;5060914;28;20296;-44
2022/03/25 13:15:18;;;;;;;;;;;20.30;32.50;;;;;;5094937;28;19921;-49
2022/03/25 13:17:46;;;;;;;;;;;20.30;32.60;;;;;;5061663;28;19932;-46
2022/03/25 13:20:14;;;;;;;;;;;20.30;32.70;;;;;;5062989;28;19942;-46
2022/03/25 13:22:53;;;;;;;;;;;20.30;32.70;;;;;;5061120;28;20275;-50
2022/03/25 13:25:24;;;;;;;;;;;20.40;33.50;;;;;;5094420;28;19935;-53
2022/03/25 13:27:52;;;;;;;;;;;20.30;33.20;;;;;;5062050;28;19956;-46
2022/03/25 13:30:18;;;;;;;;;;;20.30;34.10;;;;;;5058670;28;19933;-47
2022/03/25 13:32:45;;;;;;;;;;;20.40;34.30;;;;;;5061457;28;20023;-49
2022/03/25 13:35:12;;;;;;;;;;;20.40;32.70;;;;;;5059442;28;19963;-47
2022/03/25 13:37:39;;;;;;;;;;;20.40;32.60;;;;;;5061021;28;19935;-46
2022/03/25 13:40:20;;;;;;;;;;;20.40;32.60;;;;;;5061160;28;20064;-46
2022/03/25 13:42:47;;;;;;;;;;;20.40;32.60;;;;;;5087322;28;19920;-53
2022/03/25 13:45:16;;;;;;;;;;;20.40;32.60;;;;;;5056054;28;20253;-46
2022/03/25 13:47:43;;;;;;;;;;;20.40;32.60;;;;;;5061064;28;19942;-54
2022/03/25 13:50:13;;;;;;;;;;;20.40;32.60;;;;;;5050378;28;19924;-48
2022/03/25 13:52:47;;;;;;;;;;;20.40;50.00;;;;;;5074662;28;19959;-51
2022/03/25 13:55:15;;;;;;;;;;;20.40;69.60;;;;;;5086818;28;19920;-53
2022/03/25 13:57:42;;;;;;;;;;;;;;;;;;5060744;28;19928;-45
2022/03/25 14:00:09;;;;;;;;;;;20.20;58.60;;;;;;5057978;28;19943;-54
2022/03/25 14:02:38;;;;;;;;;;;20.30;56.80;;;;;;5058969;28;19977;-53
2022/03/25 14:05:12;;;;;;;;;;;20.40;55.40;;;;;;5062318;28;20073;-45
2022/03/25 14:07:39;;;;;;;;;;;20.50;54.30;;;;;;5059091;28;20369;-49
2022/03/25 14:10:06;;;;;;;;;;;20.40;54.40;;;;;;5059938;28;20007;-51
2022/03/25 14:12:33;;;;;;;;;;;20.60;52.70;;;;;;5061635;28;19924;-55
2022/03/25 14:15:01;;;;;;;;;;;20.70;53.10;;;;;;5060481;28;19932;-51
2022/03/25 14:17:28;;;;;;;;;;;20.50;32.30;;;;;;5060554;28;20237;-47
2022/03/25 14:19:59;;;;;;;;;;;20.50;32.20;;;;;;5058828;28;19939;-49
2022/03/25 14:22:26;;;;;;;;;;;20.40;42.20;;;;;;5061210;28;20011;-52
2022/03/25 14:24:53;;;;;;;;;;;20.50;32.30;;;;;;5060100;28;19931;-50
2022/03/25 14:27:20;;;;;;;;;;;20.50;32.30;;;;;;5059564;28;19924;-47